sensor_id;sensor_type;location;lat;lon;timestamp;pressure;altitude;pressure_sealevel;temperature;humidity
39141;BME280;24875;48.436;10.298;2023-11-22T00:01:49;96416.91;;;9.49;100.00
39141;BME280;24875;48.436;10.298;2023-11-22T00:04:16;96425.50;;;9.43;100.00
39141;BME280;24875;48.436;10.298;2023-11-22T00:06:43;96418.06;;;9.39;100.00
39141;BME280;24875;48.436;10.298;2023-11-22T00:09:09;96414.63;;;9.38;100.00
39141;BME280;24875;48.436;10.298;2023-11-22T00:11:37;96415.09;;;9.58;100.00
39141;BME280;24875;48.436;10.298;2023-11-22T00:14:04;96411.50;;;9.43;100.00
39141;BME280;24875;48.436;10.298;2023-11-22T00:16:30;96410.53;;;9.36;100.00
39141;BME280;24875;48.436;10.298;2023-11-22T00:18:57;96411.16;;;9.38;100.00
39141;BME280;24875;48.436;10.298;2023-11-22T00:21:23;96407.06;;;9.51;100.00
39141;BME280;24875;48.436;10.298;2023-11-22T00:23:50;96405.94;;;9.46;100.00
39141;BME280;24875;48.436;10.298;2023-11-22T00:26:16;96405.28;;;9.36;100.00
39141;BME280;24875;48.436;10.298;2023-11-22T00:28:44;96404.94;;;9.55;100.00
39141;BME280;24875;48.436;10.298;2023-11-22T00:31:11;96405.59;;;9.49;100.00
39141;BME280;24875;48.436;10.298;2023-11-22T00:33:39;96412.34;;;9.43;100.00
39141;BME280;24875;48.436;10.298;2023-11-22T00:36:07;96416.09;;;9.49;100.00
39141;BME280;24875;48.436;10.298;2023-11-22T00:38:34;96407.88;;;9.44;100.00
39141;BME280;24875;48.436;10.298;2023-11-22T00:41:02;96409.53;;;9.45;100.00
39141;BME280;24875;48.436;10.298;2023-11-22T00:43:29;96409.53;;;9.45;100.00
39141;BME280;24875;48.436;10.298;2023-11-22T00:45:57;96409.19;;;9.56;100.00
39141;BME280;24875;48.436;10.298;2023-11-22T00:48:23;96409.53;;;9.45;100.00
39141;BME280;24875;48.436;10.298;2023-11-22T00:50:50;96412.47;;;9.42;100.00
39141;BME280;24875;48.436;10.298;2023-11-22T00:53:16;96413.16;;;9.44;100.00
39141;BME280;24875;48.436;10.298;2023-11-22T00:55:43;96416.59;;;9.44;100.00
39141;BME280;24875;48.436;10.298;2023-11-22T00:58:10;96418.41;;;9.44;100.00
39141;BME280;24875;48.436;10.298;2023-11-22T01:00:37;96427.59;;;9.48;100.00
39141;BME280;24875;48.436;10.298;2023-11-22T01:03:05;96432.72;;;9.41;100.00
39141;BME280;24875;48.436;10.298;2023-11-22T01:05:31;96438.13;;;8.35;100.00
39141;BME280;24875;48.436;10.298;2023-11-22T01:07:57;96445.47;;;7.98;100.00
39141;BME280;24875;48.436;10.298;2023-11-22T01:10:24;96448.16;;;7.81;100.00
39141;BME280;24875;48.436;10.298;2023-11-22T01:12:50;96456.06;;;8.14;100.00
39141;BME280;24875;48.436;10.298;2023-11-22T01:15:18;96459.25;;;8.00;100.00
39141;BME280;24875;48.436;10.298;2023-11-22T01:17:44;96459.56;;;7.72;100.00
39141;BME280;24875;48.436;10.298;2023-11-22T01:20:12;96458.78;;;8.05;100.00
39141;BME280;24875;48.436;10.298;2023-11-22T01:22:39;96464.28;;;7.94;100.00
39141;BME280;24875;48.436;10.298;2023-11-22T01:25:07;96464.28;;;7.69;100.00
39141;BME280;24875;48.436;10.298;2023-11-22T01:27:34;96469.03;;;8.16;100.00
39141;BME280;24875;48.436;10.298;2023-11-22T01:30:01;96477.19;;;7.87;100.00
39141;BME280;24875;48.436;10.298;2023-11-22T01:32:29;96473.97;;;7.68;100.00
39141;BME280;24875;48.436;10.298;2023-11-22T01:34:55;96481.59;;;7.36;100.00
39141;BME280;24875;48.436;10.298;2023-11-22T01:37:24;96471.84;;;7.46;100.00
39141;BME280;24875;48.436;10.298;2023-11-22T01:39:51;96485.59;;;7.23;100.00
39141;BME280;24875;48.436;10.298;2023-11-22T01:42:17;96475.47;;;6.93;100.00
39141;BME280;24875;48.436;10.298;2023-11-22T01:44:45;96482.19;;;7.30;100.00
39141;BME280;24875;48.436;10.298;2023-11-22T01:47:13;96486.63;;;7.13;100.00
39141;BME280;24875;48.436;10.298;2023-11-22T01:49:40;96486.94;;;7.10;100.00
39141;BME280;24875;48.436;10.298;2023-11-22T01:52:07;96498.53;;;7.07;100.00
39141;BME280;24875;48.436;10.298;2023-11-22T01:54:35;96511.56;;;6.99;100.00
39141;BME280;24875;48.436;10.298;2023-11-22T01:57:02;96509.91;;;6.98;100.00
39141;BME280;24875;48.436;10.298;2023-11-22T01:59:31;96528.34;;;6.62;100.00
39141;BME280;24875;48.436;10.298;2023-11-22T02:01:58;96522.72;;;6.57;100.00
39141;BME280;24875;48.436;10.298;2023-11-22T02:04:24;96520.72;;;6.68;100.00
39141;BME280;24875;48.436;10.298;2023-11-22T02:06:51;96517.00;;;6.71;100.00
39141;BME280;24875;48.436;10.298;2023-11-22T02:09:18;96526.22;;;6.39;100.00
39141;BME280;24875;48.436;10.298;2023-11-22T02:11:46;96522.41;;;6.60;100.00
39141;BME280;24875;48.436;10.298;2023-11-22T02:14:14;96524.84;;;6.71;100.00
39141;BME280;24875;48.436;10.298;2023-11-22T02:16:41;96528.19;;;6.81;100.00
39141;BME280;24875;48.436;10.298;2023-11-22T02:19:14;96542.94;;;6.82;100.00
39141;BME280;24875;48.436;10.298;2023-11-22T02:21:40;96545.97;;;6.60;100.00
39141;BME280;24875;48.436;10.298;2023-11-22T02:24:09;96538.75;;;6.45;100.00
39141;BME280;24875;48.436;10.298;2023-11-22T02:26:35;96550.28;;;6.52;100.00
39141;BME280;24875;48.436;10.298;2023-11-22T02:29:03;96555.16;;;5.92;100.00
39141;BME280;24875;48.436;10.298;2023-11-22T02:31:30;96555.81;;;6.12;100.00
39141;BME280;24875;48.436;10.298;2023-11-22T02:33:56;96557.75;;;6.10;100.00
39141;BME280;24875;48.436;10.298;2023-11-22T02:36:23;96562.78;;;5.76;100.00
39141;BME280;24875;48.436;10.298;2023-11-22T02:38:50;96558.38;;;5.86;100.00
39141;BME280;24875;48.436;10.298;2023-11-22T02:41:18;96568.50;;;6.07;100.00
39141;BME280;24875;48.436;10.298;2023-11-22T02:43:44;96573.28;;;6.21;100.00
39141;BME280;24875;48.436;10.298;2023-11-22T02:46:11;96566.69;;;6.17;100.00
39141;BME280;24875;48.436;10.298;2023-11-22T02:48:38;96566.00;;;6.15;100.00
39141;BME280;24875;48.436;10.298;2023-11-22T02:51:04;96569.47;;;6.06;100.00
39141;BME280;24875;48.436;10.298;2023-11-22T02:53:31;96560.47;;;6.18;100.00
39141;BME280;24875;48.436;10.298;2023-11-22T02:55:59;96566.28;;;6.49;100.00
39141;BME280;24875;48.436;10.298;2023-11-22T02:58:27;96569.97;;;6.29;100.00
39141;BME280;24875;48.436;10.298;2023-11-22T03:00:54;96569.81;;;6.30;100.00
39141;BME280;24875;48.436;10.298;2023-11-22T03:03:22;96575.09;;;6.11;100.00
39141;BME280;24875;48.436;10.298;2023-11-22T03:05:49;96570.66;;;6.21;100.00
39141;BME280;24875;48.436;10.298;2023-11-22T03:08:16;96573.72;;;6.07;100.00
39141;BME280;24875;48.436;10.298;2023-11-22T03:10:43;96582.97;;;5.74;100.00
39141;BME280;24875;48.436;10.298;2023-11-22T03:13:09;96575.13;;;5.74;100.00
39141;BME280;24875;48.436;10.298;2023-11-22T03:15:37;96583.50;;;6.05;100.00
39141;BME280;24875;48.436;10.298;2023-11-22T03:18:04;96582.69;;;6.05;100.00
39141;BME280;24875;48.436;10.298;2023-11-22T03:20:31;96584.91;;;6.36;100.00
39141;BME280;24875;48.436;10.298;2023-11-22T03:22:58;96586.88;;;6.25;100.00
39141;BME280;24875;48.436;10.298;2023-11-22T03:25:25;96595.13;;;6.39;100.00
39141;BME280;24875;48.436;10.298;2023-11-22T03:27:52;96598.78;;;6.01;100.00
39141;BME280;24875;48.436;10.298;2023-11-22T03:30:18;96595.13;;;6.39;100.00
39141;BME280;24875;48.436;10.298;2023-11-22T03:32:46;96594.09;;;6.04;100.00
39141;BME280;24875;48.436;10.298;2023-11-22T03:35:13;96597.41;;;5.97;100.00
39141;BME280;24875;48.436;10.298;2023-11-22T03:37:40;96596.03;;;6.11;100.00
39141;BME280;24875;48.436;10.298;2023-11-22T03:40:07;96598.53;;;6.04;100.00
39141;BME280;24875;48.436;10.298;2023-11-22T03:42:36;96598.44;;;6.32;100.00
39141;BME280;24875;48.436;10.298;2023-11-22T03:45:03;96606.81;;;5.90;100.00
39141;BME280;24875;48.436;10.298;2023-11-22T03:47:29;96608.41;;;6.09;100.00
39141;BME280;24875;48.436;10.298;2023-11-22T03:49:59;96609.78;;;6.13;100.00
39141;BME280;24875;48.436;10.298;2023-11-22T03:52:25;96622.59;;;6.16;100.00
39141;BME280;24875;48.436;10.298;2023-11-22T03:54:53;96627.38;;;6.30;100.00
39141;BME280;24875;48.436;10.298;2023-11-22T03:57:19;96633.50;;;5.84;100.00
39141;BME280;24875;48.436;10.298;2023-11-22T03:59:46;96631.44;;;5.97;100.00
39141;BME280;24875;48.436;10.298;2023-11-22T04:02:13;96634.00;;;6.15;100.00
39141;BME280;24875;48.436;10.298;2023-11-22T04:04:39;96648.66;;;5.90;100.00
39141;BME280;24875;48.436;10.298;2023-11-22T04:07:08;96640.22;;;6.14;100.00
39141;BME280;24875;48.436;10.298;2023-11-22T04:09:34;96645.03;;;6.09;100.00
39141;BME280;24875;48.436;10.298;2023-11-22T04:12:01;96654.72;;;6.00;100.00
39141;BME280;24875;48.436;10.298;2023-11-22T04:14:29;96650.59;;;5.78;100.00
39141;BME280;24875;48.436;10.298;2023-11-22T04:16:55;96655.50;;;5.72;100.00
39141;BME280;24875;48.436;10.298;2023-11-22T04:19:22;96668.63;;;5.91;100.00
39141;BME280;24875;48.436;10.298;2023-11-22T04:21:48;96667.06;;;6.07;100.00
39141;BME280;24875;48.436;10.298;2023-11-22T04:24:16;96670.13;;;5.93;100.00
39141;BME280;24875;48.436;10.298;2023-11-22T04:26:43;96666.53;;;5.75;100.00
39141;BME280;24875;48.436;10.298;2023-11-22T04:29:09;96669.25;;;5.74;100.00
39141;BME280;24875;48.436;10.298;2023-11-22T04:31:35;96674.19;;;5.67;100.00
39141;BME280;24875;48.436;10.298;2023-11-22T04:34:01;96675.94;;;5.29;100.00
39141;BME280;24875;48.436;10.298;2023-11-22T04:36:28;96688.38;;;5.46;100.00
39141;BME280;24875;48.436;10.298;2023-11-22T04:38:54;96692.72;;;5.27;100.00
39141;BME280;24875;48.436;10.298;2023-11-22T04:41:22;96703.88;;;5.38;100.00
39141;BME280;24875;48.436;10.298;2023-11-22T04:43:50;96711.53;;;4.82;100.00
39141;BME280;24875;48.436;10.298;2023-11-22T04:46:16;96714.91;;;5.02;100.00
39141;BME280;24875;48.436;10.298;2023-11-22T04:48:43;96730.09;;;4.79;100.00
39141;BME280;24875;48.436;10.298;2023-11-22T04:51:10;96728.75;;;4.93;100.00
39141;BME280;24875;48.436;10.298;2023-11-22T04:53:37;96744.41;;;4.93;100.00
39141;BME280;24875;48.436;10.298;2023-11-22T04:56:04;96744.97;;;4.87;100.00
39141;BME280;24875;48.436;10.298;2023-11-22T04:58:32;96750.31;;;5.16;100.00
39141;BME280;24875;48.436;10.298;2023-11-22T05:00:58;96747.97;;;4.92;100.00
39141;BME280;24875;48.436;10.298;2023-11-22T05:03:26;96755.59;;;4.75;100.00
39141;BME280;24875;48.436;10.298;2023-11-22T05:05:53;96761.47;;;4.68;100.00
39141;BME280;24875;48.436;10.298;2023-11-22T05:08:20;96759.75;;;4.78;100.00
39141;BME280;24875;48.436;10.298;2023-11-22T05:10:46;96758.13;;;5.16;100.00
39141;BME280;24875;48.436;10.298;2023-11-22T05:13:12;96756.06;;;4.80;100.00
39141;BME280;24875;48.436;10.298;2023-11-22T05:15:40;96754.78;;;5.04;100.00
39141;BME280;24875;48.436;10.298;2023-11-22T05:18:07;96750.00;;;5.09;100.00
39141;BME280;24875;48.436;10.298;2023-11-22T05:20:33;96753.91;;;4.65;100.00
39141;BME280;24875;48.436;10.298;2023-11-22T05:23:00;96770.50;;;4.84;100.00
39141;BME280;24875;48.436;10.298;2023-11-22T05:25:29;96781.31;;;4.59;100.00
39141;BME280;24875;48.436;10.298;2023-11-22T05:27:56;96789.41;;;4.77;100.00
39141;BME280;24875;48.436;10.298;2023-11-22T05:30:22;96791.84;;;4.69;100.00
39141;BME280;24875;48.436;10.298;2023-11-22T05:32:51;96789.59;;;4.64;100.00
39141;BME280;24875;48.436;10.298;2023-11-22T05:35:17;96791.97;;;4.87;100.00
39141;BME280;24875;48.436;10.298;2023-11-22T05:37:44;96790.97;;;4.88;100.00
39141;BME280;24875;48.436;10.298;2023-11-22T05:40:11;96782.94;;;5.01;100.00
39141;BME280;24875;48.436;10.298;2023-11-22T05:42:38;96788.59;;;4.76;100.00
39141;BME280;24875;48.436;10.298;2023-11-22T05:45:06;96784.69;;;5.21;100.00
39141;BME280;24875;48.436;10.298;2023-11-22T05:47:33;96777.56;;;4.73;100.00
39141;BME280;24875;48.436;10.298;2023-11-22T05:50:01;96791.41;;;4.43;100.00
39141;BME280;24875;48.436;10.298;2023-11-22T05:52:26;96784.50;;;4.63;100.00
39141;BME280;24875;48.436;10.298;2023-11-22T05:54:53;96791.75;;;4.39;100.00
39141;BME280;24875;48.436;10.298;2023-11-22T05:57:19;96791.56;;;4.31;100.00
39141;BME280;24875;48.436;10.298;2023-11-22T05:59:46;96791.75;;;4.39;100.00
39141;BME280;24875;48.436;10.298;2023-11-22T06:02:12;96791.56;;;4.31;100.00
39141;BME280;24875;48.436;10.298;2023-11-22T06:04:39;96795.69;;;4.13;100.00
39141;BME280;24875;48.436;10.298;2023-11-22T06:07:07;96788.16;;;4.71;100.00
39141;BME280;24875;48.436;10.298;2023-11-22T06:09:33;96789.78;;;4.11;100.00
39141;BME280;24875;48.436;10.298;2023-11-22T06:12:01;96799.91;;;4.45;100.00
39141;BME280;24875;48.436;10.298;2023-11-22T06:14:27;96808.78;;;4.22;100.00
39141;BME280;24875;48.436;10.298;2023-11-22T06:16:54;96813.66;;;4.68;100.00
39141;BME280;24875;48.436;10.298;2023-11-22T06:19:20;96819.72;;;4.68;100.00
39141;BME280;24875;48.436;10.298;2023-11-22T06:21:47;96817.03;;;4.79;100.00
39141;BME280;24875;48.436;10.298;2023-11-22T06:24:15;96816.28;;;5.18;100.00
39141;BME280;24875;48.436;10.298;2023-11-22T06:26:42;96834.53;;;4.47;100.00
39141;BME280;24875;48.436;10.298;2023-11-22T06:29:08;96845.44;;;4.52;100.00
39141;BME280;24875;48.436;10.298;2023-11-22T06:31:35;96850.97;;;4.59;100.00
39141;BME280;24875;48.436;10.298;2023-11-22T06:34:01;96861.03;;;4.83;100.00
39141;BME280;24875;48.436;10.298;2023-11-22T06:36:28;96868.53;;;4.97;100.00
39141;BME280;24875;48.436;10.298;2023-11-22T06:38:55;96863.53;;;4.65;100.00
39141;BME280;24875;48.436;10.298;2023-11-22T06:41:23;96869.63;;;4.75;100.00
39141;BME280;24875;48.436;10.298;2023-11-22T06:43:50;96880.38;;;4.40;100.00
39141;BME280;24875;48.436;10.298;2023-11-22T06:46:16;96877.56;;;4.53;100.00
39141;BME280;24875;48.436;10.298;2023-11-22T06:48:43;96890.22;;;4.37;100.00
39141;BME280;24875;48.436;10.298;2023-11-22T06:51:10;96890.16;;;4.48;100.00
39141;BME280;24875;48.436;10.298;2023-11-22T06:53:37;96891.56;;;4.10;100.00
39141;BME280;24875;48.436;10.298;2023-11-22T06:56:04;96894.47;;;4.38;100.00
39141;BME280;24875;48.436;10.298;2023-11-22T06:58:32;96904.47;;;4.33;100.00
39141;BME280;24875;48.436;10.298;2023-11-22T07:00:58;96915.03;;;4.21;100.00
39141;BME280;24875;48.436;10.298;2023-11-22T07:03:26;96903.06;;;4.07;100.00
39141;BME280;24875;48.436;10.298;2023-11-22T07:05:52;96901.75;;;4.23;100.00
39141;BME280;24875;48.436;10.298;2023-11-22T07:08:19;96913.06;;;3.91;100.00
39141;BME280;24875;48.436;10.298;2023-11-22T07:10:47;96921.53;;;4.26;100.00
39141;BME280;24875;48.436;10.298;2023-11-22T07:13:13;96923.31;;;4.25;100.00
39141;BME280;24875;48.436;10.298;2023-11-22T07:15:41;96912.44;;;4.52;100.00
39141;BME280;24875;48.436;10.298;2023-11-22T07:18:08;96915.72;;;4.65;100.00
39141;BME280;24875;48.436;10.298;2023-11-22T07:20:35;96912.53;;;4.61;100.00
39141;BME280;24875;48.436;10.298;2023-11-22T07:23:02;96919.28;;;4.64;100.00
39141;BME280;24875;48.436;10.298;2023-11-22T07:25:29;96917.44;;;4.44;100.00
39141;BME280;24875;48.436;10.298;2023-11-22T07:27:56;96924.28;;;4.24;100.00
39141;BME280;24875;48.436;10.298;2023-11-22T07:30:24;96926.34;;;3.99;100.00
39141;BME280;24875;48.436;10.298;2023-11-22T07:32:56;96934.63;;;4.46;100.00
39141;BME280;24875;48.436;10.298;2023-11-22T07:35:24;96939.66;;;4.38;100.00
39141;BME280;24875;48.436;10.298;2023-11-22T07:37:51;96946.25;;;4.00;100.00
39141;BME280;24875;48.436;10.298;2023-11-22T07:40:20;96945.06;;;4.04;100.00
39141;BME280;24875;48.436;10.298;2023-11-22T07:42:47;96952.78;;;3.95;100.00
39141;BME280;24875;48.436;10.298;2023-11-22T07:45:14;96966.38;;;3.98;100.00
39141;BME280;24875;48.436;10.298;2023-11-22T07:47:42;96961.47;;;4.48;100.00
39141;BME280;24875;48.436;10.298;2023-11-22T07:50:10;96974.03;;;4.75;100.00
39141;BME280;24875;48.436;10.298;2023-11-22T07:52:37;96969.88;;;4.41;100.00
39141;BME280;24875;48.436;10.298;2023-11-22T07:55:05;96977.50;;;4.75;100.00
39141;BME280;24875;48.436;10.298;2023-11-22T07:57:33;96967.69;;;4.57;100.00
39141;BME280;24875;48.436;10.298;2023-11-22T08:00:00;96964.88;;;4.49;100.00
39141;BME280;24875;48.436;10.298;2023-11-22T08:02:29;96967.47;;;4.60;100.00
39141;BME280;24875;48.436;10.298;2023-11-22T08:04:56;96976.91;;;4.72;100.00
39141;BME280;24875;48.436;10.298;2023-11-22T08:07:24;96980.00;;;4.77;100.00
39141;BME280;24875;48.436;10.298;2023-11-22T08:09:51;96987.22;;;4.73;100.00
39141;BME280;24875;48.436;10.298;2023-11-22T08:12:18;96997.06;;;4.27;100.00
39141;BME280;24875;48.436;10.298;2023-11-22T08:14:44;96992.69;;;4.28;100.00
39141;BME280;24875;48.436;10.298;2023-11-22T08:17:11;96997.41;;;4.45;100.00
39141;BME280;24875;48.436;10.298;2023-11-22T08:19:39;96997.09;;;4.17;100.00
39141;BME280;24875;48.436;10.298;2023-11-22T08:22:06;97003.34;;;4.36;100.00
39141;BME280;24875;48.436;10.298;2023-11-22T08:24:34;97002.88;;;4.42;100.00
39141;BME280;24875;48.436;10.298;2023-11-22T08:27:01;97005.94;;;4.36;100.00
39141;BME280;24875;48.436;10.298;2023-11-22T08:29:28;97019.97;;;4.77;100.00
39141;BME280;24875;48.436;10.298;2023-11-22T08:31:54;97023.59;;;5.48;100.00
39141;BME280;24875;48.436;10.298;2023-11-22T08:34:22;97022.91;;;6.16;100.00
39141;BME280;24875;48.436;10.298;2023-11-22T08:36:48;97034.84;;;5.28;100.00
39141;BME280;24875;48.436;10.298;2023-11-22T08:39:15;97041.25;;;5.04;100.00
39141;BME280;24875;48.436;10.298;2023-11-22T08:41:42;97047.88;;;4.77;100.00
39141;BME280;24875;48.436;10.298;2023-11-22T08:44:09;97052.03;;;4.68;100.00
39141;BME280;24875;48.436;10.298;2023-11-22T08:46:35;97051.47;;;4.43;100.00
39141;BME280;24875;48.436;10.298;2023-11-22T08:49:02;97041.91;;;4.75;100.00
39141;BME280;24875;48.436;10.298;2023-11-22T08:51:29;97044.25;;;4.99;100.00
39141;BME280;24875;48.436;10.298;2023-11-22T08:53:55;97036.56;;;4.87;100.00
39141;BME280;24875;48.436;10.298;2023-11-22T08:56:22;97048.66;;;4.88;100.00
39141;BME280;24875;48.436;10.298;2023-11-22T08:58:54;97056.34;;;5.00;100.00
39141;BME280;24875;48.436;10.298;2023-11-22T09:01:22;97051.22;;;4.68;100.00
39141;BME280;24875;48.436;10.298;2023-11-22T09:03:49;97055.97;;;4.63;100.00
39141;BME280;24875;48.436;10.298;2023-11-22T09:06:15;97045.31;;;4.97;100.00
39141;BME280;24875;48.436;10.298;2023-11-22T09:08:42;97034.41;;;4.92;100.00
39141;BME280;24875;48.436;10.298;2023-11-22T09:11:11;97036.56;;;5.18;100.00
39141;BME280;24875;48.436;10.298;2023-11-22T09:13:38;97046.66;;;4.81;100.00
39141;BME280;24875;48.436;10.298;2023-11-22T09:16:07;97044.59;;;4.53;100.00
39141;BME280;24875;48.436;10.298;2023-11-22T09:18:34;97049.28;;;4.81;100.00
39141;BME280;24875;48.436;10.298;2023-11-22T09:21:00;97050.59;;;5.17;100.00
39141;BME280;24875;48.436;10.298;2023-11-22T09:23:27;97055.59;;;5.09;100.00
39141;BME280;24875;48.436;10.298;2023-11-22T09:25:55;97053.97;;;4.97;100.00
39141;BME280;24875;48.436;10.298;2023-11-22T09:28:21;97053.06;;;4.87;100.00
39141;BME280;24875;48.436;10.298;2023-11-22T09:30:48;97064.38;;;5.08;100.00
39141;BME280;24875;48.436;10.298;2023-11-22T09:33:16;97061.66;;;5.41;100.00
39141;BME280;24875;48.436;10.298;2023-11-22T09:35:45;97063.16;;;5.23;100.00
39141;BME280;24875;48.436;10.298;2023-11-22T09:38:13;97068.91;;;5.38;100.00
39141;BME280;24875;48.436;10.298;2023-11-22T09:40:41;97072.72;;;5.02;100.00
39141;BME280;24875;48.436;10.298;2023-11-22T09:43:09;97074.88;;;4.97;100.00
39141;BME280;24875;48.436;10.298;2023-11-22T09:45:34;97068.38;;;5.23;100.00
39141;BME280;24875;48.436;10.298;2023-11-22T09:48:07;97084.75;;;5.25;100.00
39141;BME280;24875;48.436;10.298;2023-11-22T09:50:40;97077.72;;;5.05;100.00
39141;BME280;24875;48.436;10.298;2023-11-22T09:53:11;97073.03;;;5.09;100.00
39141;BME280;24875;48.436;10.298;2023-11-22T09:55:40;97074.13;;;5.06;100.00
39141;BME280;24875;48.436;10.298;2023-11-22T09:58:08;97062.44;;;5.21;100.00
39141;BME280;24875;48.436;10.298;2023-11-22T10:00:38;97073.38;;;5.15;100.00
39141;BME280;24875;48.436;10.298;2023-11-22T10:03:06;97077.06;;;4.82;100.00
39141;BME280;24875;48.436;10.298;2023-11-22T10:05:33;97072.38;;;5.58;100.00
39141;BME280;24875;48.436;10.298;2023-11-22T10:08:01;97061.84;;;5.49;100.00
39141;BME280;24875;48.436;10.298;2023-11-22T10:10:30;97071.44;;;5.28;100.00
39141;BME280;24875;48.436;10.298;2023-11-22T10:12:59;97062.19;;;5.24;100.00
39141;BME280;24875;48.436;10.298;2023-11-22T10:15:27;97065.38;;;5.59;100.00
39141;BME280;24875;48.436;10.298;2023-11-22T10:17:55;97063.56;;;5.39;100.00
39141;BME280;24875;48.436;10.298;2023-11-22T10:20:35;97061.88;;;5.38;100.00
39141;BME280;24875;48.436;10.298;2023-11-22T10:23:08;97068.63;;;5.20;100.00
39141;BME280;24875;48.436;10.298;2023-11-22T10:25:35;97073.44;;;4.93;100.00
39141;BME280;24875;48.436;10.298;2023-11-22T10:28:02;97078.59;;;4.73;100.00
39141;BME280;24875;48.436;10.298;2023-11-22T10:30:29;97072.50;;;5.05;100.00
39141;BME280;24875;48.436;10.298;2023-11-22T10:32:55;97074.56;;;5.22;100.00
39141;BME280;24875;48.436;10.298;2023-11-22T10:35:23;97079.38;;;5.38;100.00
39141;BME280;24875;48.436;10.298;2023-11-22T10:37:49;97078.78;;;5.34;100.00
39141;BME280;24875;48.436;10.298;2023-11-22T10:40:18;97098.50;;;5.58;100.00
39141;BME280;24875;48.436;10.298;2023-11-22T10:42:46;97101.66;;;5.10;100.00
39141;BME280;24875;48.436;10.298;2023-11-22T10:45:17;97105.16;;;5.31;100.00
39141;BME280;24875;48.436;10.298;2023-11-22T10:47:45;97095.94;;;5.16;100.00
39141;BME280;24875;48.436;10.298;2023-11-22T10:50:12;97094.72;;;5.31;100.00
39141;BME280;24875;48.436;10.298;2023-11-22T10:52:41;97094.28;;;5.46;100.00
39141;BME280;24875;48.436;10.298;2023-11-22T10:55:11;97102.28;;;5.34;100.00
39141;BME280;24875;48.436;10.298;2023-11-22T10:57:44;97104.16;;;5.43;100.00
39141;BME280;24875;48.436;10.298;2023-11-22T11:00:15;97108.25;;;5.36;100.00
39141;BME280;24875;48.436;10.298;2023-11-22T11:02:45;97104.06;;;5.02;100.00
39141;BME280;24875;48.436;10.298;2023-11-22T11:05:15;97111.28;;;5.10;100.00
39141;BME280;24875;48.436;10.298;2023-11-22T11:07:49;97112.00;;;5.12;100.00
39141;BME280;24875;48.436;10.298;2023-11-22T11:10:19;97107.56;;;5.23;100.00
39141;BME280;24875;48.436;10.298;2023-11-22T11:12:48;97116.19;;;4.92;100.00
39141;BME280;24875;48.436;10.298;2023-11-22T11:15:15;97111.06;;;5.02;100.00
39141;BME280;24875;48.436;10.298;2023-11-22T11:17:44;97109.09;;;4.62;100.00
39141;BME280;24875;48.436;10.298;2023-11-22T11:20:15;97105.50;;;4.84;100.00
39141;BME280;24875;48.436;10.298;2023-11-22T11:22:43;97104.09;;;4.70;100.00
39141;BME280;24875;48.436;10.298;2023-11-22T11:25:14;97102.44;;;4.90;100.00
39141;BME280;24875;48.436;10.298;2023-11-22T11:27:41;97100.16;;;4.97;100.00
39141;BME280;24875;48.436;10.298;2023-11-22T11:30:41;97099.13;;;5.51;100.00
39141;BME280;24875;48.436;10.298;2023-11-22T11:33:09;97105.91;;;5.22;100.00
39141;BME280;24875;48.436;10.298;2023-11-22T11:35:38;97104.19;;;4.90;100.00
39141;BME280;24875;48.436;10.298;2023-11-22T11:38:05;97110.22;;;5.12;100.00
39141;BME280;24875;48.436;10.298;2023-11-22T11:40:35;97114.88;;;5.40;100.00
39141;BME280;24875;48.436;10.298;2023-11-22T11:43:02;97120.41;;;5.15;100.00
39141;BME280;24875;48.436;10.298;2023-11-22T11:45:35;97117.63;;;5.39;100.00
39141;BME280;24875;48.436;10.298;2023-11-22T11:48:06;97115.41;;;5.23;100.00
39141;BME280;24875;48.436;10.298;2023-11-22T11:50:33;97106.59;;;5.24;100.00
39141;BME280;24875;48.436;10.298;2023-11-22T11:53:00;97115.66;;;4.56;100.00
39141;BME280;24875;48.436;10.298;2023-11-22T11:55:26;97111.16;;;6.35;100.00
39141;BME280;24875;48.436;10.298;2023-11-22T11:57:53;97118.50;;;6.20;100.00
39141;BME280;24875;48.436;10.298;2023-11-22T12:00:20;97115.41;;;5.75;100.00
39141;BME280;24875;48.436;10.298;2023-11-22T12:02:49;97115.97;;;5.89;100.00
39141;BME280;24875;48.436;10.298;2023-11-22T12:05:18;97111.03;;;5.96;100.00
39141;BME280;24875;48.436;10.298;2023-11-22T12:07:45;97118.19;;;5.42;100.00
39141;BME280;24875;48.436;10.298;2023-11-22T12:10:12;97107.47;;;5.76;100.00
39141;BME280;24875;48.436;10.298;2023-11-22T12:12:39;97113.19;;;5.50;100.00
39141;BME280;24875;48.436;10.298;2023-11-22T12:15:08;97122.13;;;5.68;100.00
39141;BME280;24875;48.436;10.298;2023-11-22T12:17:35;97124.16;;;5.33;100.00
39141;BME280;24875;48.436;10.298;2023-11-22T12:20:10;97126.47;;;5.47;100.00
39141;BME280;24875;48.436;10.298;2023-11-22T12:22:38;97141.34;;;4.93;100.00
39141;BME280;24875;48.436;10.298;2023-11-22T12:25:07;97135.81;;;5.29;100.00
39141;BME280;24875;48.436;10.298;2023-11-22T12:27:33;97118.81;;;5.35;100.00
39141;BME280;24875;48.436;10.298;2023-11-22T12:30:00;97124.84;;;5.46;100.00
39141;BME280;24875;48.436;10.298;2023-11-22T12:32:26;97127.03;;;5.30;100.00
39141;BME280;24875;48.436;10.298;2023-11-22T12:34:54;97127.59;;;5.76;100.00
39141;BME280;24875;48.436;10.298;2023-11-22T12:37:20;97139.19;;;5.51;100.00
39141;BME280;24875;48.436;10.298;2023-11-22T12:39:48;97150.81;;;5.90;100.00
39141;BME280;24875;48.436;10.298;2023-11-22T12:42:15;97149.59;;;5.20;100.00
39141;BME280;24875;48.436;10.298;2023-11-22T12:44:47;97146.53;;;5.15;100.00
39141;BME280;24875;48.436;10.298;2023-11-22T12:47:14;97151.56;;;4.96;100.00
39141;BME280;24875;48.436;10.298;2023-11-22T12:49:43;97147.50;;;5.45;100.00
39141;BME280;24875;48.436;10.298;2023-11-22T12:52:10;97152.31;;;4.87;100.00